Time;durP1;ratioP1;P1;durP2;ratioP2;P2;SDS_P1;SDS_P2;PMS_P1;PMS_P2;Temp;Humidity;BMP_temperature;BMP_pressure;BME280_temperature;BME280_humidity;BME280_pressure;Samples;Min_cycle;Max_cycle;Signal;HPM_P1;HPM_P2
2021/10/22 00:01:34;;;;;;;2.40;1.55;;;8.10;99.90;;;;;;5016984;28;20475;-71
2021/10/22 00:03:59;;;;;;;3.20;1.05;;;8.00;99.90;;;;;;5035313;28;20026;-71
2021/10/22 00:06:25;;;;;;;5.53;1.75;;;7.90;99.90;;;;;;5036376;28;20033;-71
2021/10/22 00:08:51;;;;;;;3.00;1.42;;;7.90;99.90;;;;;;5034898;28;20079;-71
2021/10/22 00:11:16;;;;;;;6.20;1.80;;;7.90;99.90;;;;;;5016233;28;20065;-70
2021/10/22 00:13:42;;;;;;;2.33;1.45;;;7.90;99.90;;;;;;5035796;28;20052;-73
2021/10/22 00:16:08;;;;;;;4.95;1.40;;;7.80;99.90;;;;;;5036287;28;20057;-73
2021/10/22 00:18:34;;;;;;;0.95;0.82;;;7.80;99.90;;;;;;5010715;28;20026;-71
2021/10/22 00:20:59;;;;;;;2.60;1.33;;;7.70;99.90;;;;;;5028479;28;20022;-70
2021/10/22 00:23:25;;;;;;;2.78;2.28;;;7.70;99.90;;;;;;5035759;28;20032;-71
2021/10/22 00:25:51;;;;;;;3.80;1.52;;;7.70;99.90;;;;;;5036358;28;20555;-73
2021/10/22 00:28:17;;;;;;;3.75;1.40;;;7.60;99.90;;;;;;5018757;28;20064;-72
2021/10/22 00:30:43;;;;;;;1.92;1.25;;;7.60;99.90;;;;;;5034196;28;20482;-72
2021/10/22 00:33:08;;;;;;;2.17;1.38;;;7.60;99.90;;;;;;5033991;28;20044;-71
2021/10/22 00:35:34;;;;;;;3.35;1.10;;;7.60;99.90;;;;;;5026675;28;20030;-73
2021/10/22 00:38:00;;;;;;;3.38;1.90;;;7.50;99.90;;;;;;5043427;28;20444;-71
2021/10/22 00:40:26;;;;;;;3.80;1.05;;;7.50;99.90;;;;;;5044924;28;20026;-72
2021/10/22 00:42:54;;;;;;;1.60;1.50;;;7.60;99.90;;;;;;5042445;28;20056;-71
2021/10/22 00:45:20;;;;;;;2.88;1.10;;;7.60;99.90;;;;;;5036092;28;20030;-73
2021/10/22 00:47:46;;;;;;;3.17;1.35;;;7.60;99.90;;;;;;5035009;28;20078;-71
2021/10/22 00:50:11;;;;;;;4.03;1.00;;;7.70;99.90;;;;;;5033188;28;20034;-71
2021/10/22 00:52:37;;;;;;;2.72;1.00;;;7.70;99.90;;;;;;5033723;28;20025;-71
2021/10/22 00:55:04;;;;;;;3.05;1.17;;;7.70;99.90;;;;;;5033944;28;20025;-72
2021/10/22 00:57:29;;;;;;;3.67;0.95;;;7.70;99.90;;;;;;5033618;28;20029;-72
2021/10/22 00:59:55;;;;;;;3.33;1.50;;;7.70;99.90;;;;;;5033471;28;20025;-72
2021/10/22 01:02:21;;;;;;;3.13;1.13;;;7.70;99.90;;;;;;5033657;28;20026;-71
2021/10/22 01:04:46;;;;;;;3.13;1.30;;;7.70;99.90;;;;;;5036502;28;20053;-72
2021/10/22 01:07:14;;;;;;;3.78;2.42;;;7.70;99.90;;;;;;5033319;28;20064;-71
2021/10/22 01:09:43;;;;;;;3.25;1.40;;;7.70;99.90;;;;;;5027689;28;20028;-71
2021/10/22 01:12:10;;;;;;;3.10;1.67;;;7.70;99.90;;;;;;5033036;28;20029;-71
2021/10/22 01:14:37;;;;;;;1.65;1.30;;;7.80;99.90;;;;;;5033488;28;20029;-71
2021/10/22 01:17:03;;;;;;;4.18;1.92;;;7.80;99.90;;;;;;5033830;28;20061;-71
2021/10/22 01:19:29;;;;;;;4.63;1.90;;;7.80;99.90;;;;;;5035496;28;20040;-71
2021/10/22 01:21:55;;;;;;;2.45;1.48;;;7.80;99.90;;;;;;5033799;28;20068;-71
2021/10/22 01:24:20;;;;;;;3.63;1.60;;;7.80;99.90;;;;;;5018880;28;20060;-72
2021/10/22 01:26:47;;;;;;;3.42;1.98;;;7.70;99.90;;;;;;5032579;28;20653;-71
2021/10/22 01:29:17;;;;;;;5.75;1.73;;;7.70;99.90;;;;;;5033221;28;20401;-71
2021/10/22 01:31:44;;;;;;;2.13;1.40;;;7.70;99.90;;;;;;5015255;28;20025;-72
2021/10/22 01:34:09;;;;;;;7.18;3.15;;;7.80;99.90;;;;;;5032220;28;20029;-72
2021/10/22 01:36:35;;;;;;;2.85;1.20;;;7.70;99.90;;;;;;5032642;28;20024;-71
2021/10/22 01:39:03;;;;;;;3.75;1.33;;;7.70;99.90;;;;;;5032722;28;20030;-72
2021/10/22 01:41:29;;;;;;;7.20;1.70;;;7.70;99.90;;;;;;5034242;28;20068;-71
2021/10/22 01:44:00;;;;;;;1.55;1.25;;;7.70;99.90;;;;;;5033033;28;20025;-72
2021/10/22 01:46:26;;;;;;;3.72;1.60;;;7.70;99.90;;;;;;5041511;28;20393;-73
2021/10/22 01:48:52;;;;;;;1.88;1.40;;;7.70;99.90;;;;;;5037699;28;20436;-71
2021/10/22 01:51:17;;;;;;;1.60;1.33;;;7.70;99.90;;;;;;5037242;28;20303;-71
2021/10/22 01:53:43;;;;;;;4.82;1.50;;;7.70;99.90;;;;;;5033198;28;20017;-72
2021/10/22 01:56:09;;;;;;;4.63;1.80;;;7.70;99.90;;;;;;5036826;28;20040;-71
2021/10/22 01:58:35;;;;;;;2.58;1.10;;;7.70;99.90;;;;;;5033732;28;20060;-71
2021/10/22 02:01:00;;;;;;;1.95;1.10;;;7.60;99.90;;;;;;5032482;28;20061;-72
2021/10/22 02:03:26;;;;;;;3.97;1.60;;;7.60;99.90;;;;;;5031862;28;20029;-71
2021/10/22 02:05:51;;;;;;;2.90;1.15;;;7.60;99.90;;;;;;5031386;28;20436;-72
2021/10/22 02:08:17;;;;;;;1.63;1.00;;;7.50;99.90;;;;;;5011111;28;20111;-72
2021/10/22 02:10:43;;;;;;;1.77;1.30;;;7.50;99.90;;;;;;5033071;28;20100;-73
2021/10/22 02:13:08;;;;;;;4.88;2.33;;;7.50;99.90;;;;;;5033242;28;20117;-71
2021/10/22 02:15:34;;;;;;;4.65;1.75;;;7.40;99.90;;;;;;5032528;28;20121;-72
2021/10/22 02:18:00;;;;;;;4.78;1.88;;;7.40;99.90;;;;;;5031979;28;20032;-71
2021/10/22 02:20:25;;;;;;;5.70;1.58;;;7.30;99.90;;;;;;5015187;28;20033;-72
2021/10/22 02:22:51;;;;;;;4.55;2.50;;;7.30;99.90;;;;;;5002612;28;20120;-71
2021/10/22 02:25:16;;;;;;;2.72;1.92;;;7.30;99.90;;;;;;5031174;28;20425;-72
2021/10/22 02:27:42;;;;;;;4.32;1.40;;;7.30;99.90;;;;;;5033626;28;20028;-72
2021/10/22 02:30:08;;;;;;;6.80;1.65;;;7.20;99.90;;;;;;4997927;28;20040;-72
2021/10/22 02:32:34;;;;;;;6.93;1.83;;;7.20;99.90;;;;;;5032595;28;20363;-72
2021/10/22 02:34:59;;;;;;;8.18;1.63;;;7.20;99.90;;;;;;5032239;28;20032;-71
2021/10/22 02:37:25;;;;;;;5.95;1.40;;;7.10;99.90;;;;;;5032258;28;20037;-72
2021/10/22 02:39:51;;;;;;;3.05;1.40;;;7.10;99.90;;;;;;5032220;28;20029;-71
2021/10/22 02:42:17;;;;;;;3.45;1.60;;;7.10;99.90;;;;;;5032395;28;20389;-72
2021/10/22 02:44:42;;;;;;;9.18;1.77;;;7.00;99.90;;;;;;5037426;28;20022;-72
2021/10/22 02:47:08;;;;;;;8.73;1.45;;;6.90;99.90;;;;;;5032879;28;20034;-72
2021/10/22 02:49:34;;;;;;;9.30;1.67;;;6.90;99.90;;;;;;5023312;28;20033;-72
2021/10/22 02:51:59;;;;;;;4.95;1.73;;;6.80;99.90;;;;;;5035982;28;20028;-73
2021/10/22 02:54:25;;;;;;;5.13;1.58;;;6.80;99.90;;;;;;5032955;28;20152;-71
2021/10/22 02:56:51;;;;;;;11.43;2.25;;;6.80;99.90;;;;;;5032679;28;20022;-71
2021/10/22 02:59:16;;;;;;;6.88;1.77;;;6.80;99.90;;;;;;5032102;28;20518;-71
2021/10/22 03:01:42;;;;;;;7.40;1.58;;;6.80;99.90;;;;;;5034523;28;20350;-72
2021/10/22 03:04:08;;;;;;;6.28;1.33;;;6.80;99.90;;;;;;5036262;28;20021;-71
2021/10/22 03:06:34;;;;;;;5.43;1.38;;;6.70;99.90;;;;;;5036096;28;20462;-72
2021/10/22 03:09:00;;;;;;;5.20;1.58;;;6.60;99.90;;;;;;5039144;28;20026;-71
2021/10/22 03:11:27;;;;;;;3.97;1.80;;;6.60;99.90;;;;;;5033535;28;20477;-71
2021/10/22 03:13:52;;;;;;;10.30;2.05;;;6.50;99.90;;;;;;5037360;28;20020;-72
2021/10/22 03:16:18;;;;;;;5.25;1.75;;;6.50;99.90;;;;;;5046217;28;20025;-72
2021/10/22 03:18:44;;;;;;;5.07;1.27;;;6.40;99.90;;;;;;5038849;28;20071;-72
2021/10/22 03:21:09;;;;;;;9.77;1.45;;;6.40;99.90;;;;;;5037460;28;20034;-73
2021/10/22 03:23:35;;;;;;;8.35;1.75;;;6.40;99.90;;;;;;5039419;28;20104;-72
2021/10/22 03:26:01;;;;;;;6.22;1.55;;;6.40;99.90;;;;;;5040175;28;20068;-71
2021/10/22 03:28:26;;;;;;;5.55;2.13;;;6.40;99.90;;;;;;5038056;28;20028;-71
2021/10/22 03:30:52;;;;;;;3.35;1.15;;;6.40;99.90;;;;;;5038971;28;20060;-71
2021/10/22 03:33:17;;;;;;;4.88;1.20;;;6.40;99.90;;;;;;5036538;28;20052;-70
2021/10/22 03:35:43;;;;;;;7.20;1.27;;;6.50;99.90;;;;;;5039278;28;20301;-71
2021/10/22 03:38:08;;;;;;;12.20;2.05;;;6.50;99.90;;;;;;5046941;28;20009;-71
2021/10/22 03:40:35;;;;;;;12.43;1.77;;;6.50;99.90;;;;;;5058989;28;20037;-71
2021/10/22 03:43:00;;;;;;;8.73;3.25;;;6.50;99.90;;;;;;5054581;28;20013;-72
2021/10/22 03:45:26;;;;;;;9.95;1.63;;;6.40;99.90;;;;;;5054557;28;20042;-72
2021/10/22 03:47:55;;;;;;;8.02;1.52;;;6.40;99.90;;;;;;5051769;28;20029;-71
2021/10/22 03:50:22;;;;;;;5.05;1.63;;;6.40;99.90;;;;;;5047474;28;20065;-72
2021/10/22 03:52:48;;;;;;;7.60;2.20;;;6.40;99.90;;;;;;5063717;28;20072;-71
2021/10/22 03:55:14;;;;;;;9.38;1.90;;;6.30;99.90;;;;;;5043984;28;20272;-72
2021/10/22 03:57:40;;;;;;;7.28;1.95;;;6.30;99.90;;;;;;5036360;28;20025;-72
2021/10/22 04:00:07;;;;;;;7.18;2.00;;;6.30;99.90;;;;;;5036032;28;20032;-73
2021/10/22 04:02:32;;;;;;;9.60;1.85;;;6.30;99.90;;;;;;5018161;28;20397;-72
2021/10/22 04:04:58;;;;;;;5.88;1.58;;;6.30;99.90;;;;;;5035729;28;20029;-72
2021/10/22 04:07:24;;;;;;;11.35;2.55;;;6.30;99.90;;;;;;5039071;28;20032;-71
2021/10/22 04:09:49;;;;;;;6.90;2.00;;;6.30;99.90;;;;;;5035339;28;20020;-73
2021/10/22 04:12:15;;;;;;;7.43;1.73;;;6.30;99.90;;;;;;5035013;28;20413;-71
2021/10/22 04:14:41;;;;;;;8.20;2.30;;;6.30;99.90;;;;;;5034796;28;20079;-71
2021/10/22 04:17:07;;;;;;;7.35;1.75;;;6.30;99.90;;;;;;5035442;28;20026;-72
2021/10/22 04:19:34;;;;;;;11.43;1.98;;;6.30;99.90;;;;;;5035055;28;20060;-71
2021/10/22 04:22:00;;;;;;;7.60;2.17;;;6.30;99.90;;;;;;5038905;28;20057;-70
2021/10/22 04:24:25;;;;;;;9.02;1.80;;;6.20;99.90;;;;;;5058100;28;20020;-71
2021/10/22 04:26:51;;;;;;;6.15;2.25;;;6.20;99.90;;;;;;5057864;28;20044;-72
2021/10/22 04:29:17;;;;;;;8.63;1.27;;;6.10;99.90;;;;;;5048625;28;20034;-72
2021/10/22 04:31:43;;;;;;;9.55;2.40;;;6.10;99.90;;;;;;5046002;28;20032;-71
2021/10/22 04:34:09;;;;;;;8.88;1.50;;;6.10;99.90;;;;;;5053005;28;20038;-71
2021/10/22 04:36:36;;;;;;;7.18;1.60;;;6.10;99.90;;;;;;5056465;28;20064;-72
2021/10/22 04:41:47;;;;;;;12.18;2.42;;;6.00;99.90;;;;;;5029436;28;20066;-70
2021/10/22 04:44:15;;;;;;;13.40;4.45;;;6.00;99.90;;;;;;5050560;28;20030;-71
2021/10/22 04:46:41;;;;;;;14.88;5.38;;;6.00;99.90;;;;;;5028009;28;20029;-72
2021/10/22 04:49:06;;;;;;;15.60;4.70;;;6.10;99.90;;;;;;5043338;28;20043;-71
2021/10/22 04:51:32;;;;;;;15.82;6.05;;;6.10;99.90;;;;;;5043216;28;20029;-71
2021/10/22 04:53:57;;;;;;;16.00;3.38;;;6.00;99.90;;;;;;5036206;28;20048;-71
2021/10/22 04:56:23;;;;;;;11.05;3.15;;;6.00;99.90;;;;;;5038387;28;20030;-73
2021/10/22 04:58:48;;;;;;;15.80;3.60;;;6.00;99.90;;;;;;5037377;28;20108;-71
2021/10/22 05:01:14;;;;;;;11.68;3.50;;;6.00;99.90;;;;;;5037518;28;20029;-72
2021/10/22 05:03:40;;;;;;;9.60;2.72;;;6.00;99.90;;;;;;5037976;28;20100;-72
2021/10/22 05:06:06;;;;;;;10.80;2.38;;;6.00;99.90;;;;;;5033746;28;20468;-72
2021/10/22 05:08:31;;;;;;;13.10;3.05;;;6.00;99.90;;;;;;5035676;28;20030;-71
2021/10/22 05:10:57;;;;;;;17.45;2.83;;;6.00;99.90;;;;;;5034812;28;20121;-72
2021/10/22 05:13:23;;;;;;;14.98;2.67;;;6.00;99.90;;;;;;5038931;28;20029;-72
2021/10/22 05:15:49;;;;;;;10.98;3.25;;;5.90;99.90;;;;;;5047824;28;20025;-70
2021/10/22 05:18:15;;;;;;;9.20;2.42;;;5.90;99.90;;;;;;5041142;28;20037;-71
2021/10/22 05:20:40;;;;;;;8.77;2.38;;;5.90;99.90;;;;;;5035372;28;20092;-72
2021/10/22 05:23:06;;;;;;;9.45;2.35;;;5.90;99.90;;;;;;5034621;28;20048;-73
2021/10/22 05:25:32;;;;;;;5.95;1.70;;;5.80;99.90;;;;;;5032278;28;20026;-72
2021/10/22 05:27:57;;;;;;;11.77;1.88;;;5.80;99.90;;;;;;5040407;28;20021;-72
2021/10/22 05:30:23;;;;;;;9.25;2.33;;;5.80;99.90;;;;;;5033459;28;20423;-74
2021/10/22 05:32:48;;;;;;;4.65;1.30;;;5.90;99.90;;;;;;5036314;28;20029;-72
2021/10/22 05:35:17;;;;;;;10.02;2.00;;;5.90;99.90;;;;;;5035237;28;20038;-73
2021/10/22 05:37:43;;;;;;;12.60;2.40;;;5.90;99.90;;;;;;5035608;28;20036;-71
2021/10/22 05:40:09;;;;;;;12.25;2.20;;;5.90;99.90;;;;;;5015189;28;20034;-70
2021/10/22 05:42:35;;;;;;;8.77;2.10;;;6.00;99.90;;;;;;5033240;28;20508;-73
2021/10/22 05:45:01;;;;;;;5.53;1.80;;;5.90;99.90;;;;;;5032624;28;20029;-72
2021/10/22 05:47:26;;;;;;;9.60;2.45;;;6.00;99.90;;;;;;5033323;28;20048;-72
2021/10/22 05:49:52;;;;;;;11.82;1.67;;;6.00;99.90;;;;;;5069428;22;20041;-74
2021/10/22 05:52:17;;;;;;;15.10;2.05;;;5.90;99.90;;;;;;5036760;28;20477;-72
2021/10/22 05:54:44;;;;;;;10.25;2.00;;;6.00;99.90;;;;;;5055139;28;20036;-71
2021/10/22 05:57:09;;;;;;;15.13;3.35;;;6.00;99.90;;;;;;5053634;28;20047;-72
2021/10/22 05:59:35;;;;;;;17.42;5.18;;;6.00;99.90;;;;;;5043581;28;20478;-72
2021/10/22 06:02:00;;;;;;;10.57;4.10;;;5.90;99.90;;;;;;5018957;28;20061;-74
2021/10/22 06:04:26;;;;;;;15.88;2.47;;;5.90;99.90;;;;;;5034316;28;20437;-73
2021/10/22 06:06:52;;;;;;;10.48;1.73;;;5.90;99.90;;;;;;5034244;28;20024;-71
2021/10/22 06:09:17;;;;;;;9.85;2.15;;;5.90;99.90;;;;;;5032523;28;20056;-73
2021/10/22 06:11:43;;;;;;;11.27;2.22;;;5.80;99.90;;;;;;5033741;28;20450;-73
2021/10/22 06:14:09;;;;;;;11.23;2.55;;;5.80;99.90;;;;;;5007248;28;20528;-73
2021/10/22 06:16:34;;;;;;;13.80;3.25;;;5.90;99.90;;;;;;5032872;28;20378;-72
2021/10/22 06:19:04;;;;;;;5.50;1.75;;;5.90;99.90;;;;;;5035862;28;20029;-71
2021/10/22 06:21:40;;;;;;;6.47;1.83;;;6.00;99.90;;;;;;5038874;28;20021;-72
2021/10/22 06:24:06;;;;;;;10.95;1.73;;;6.00;99.90;;;;;;5046974;28;20036;-72
2021/10/22 06:26:35;;;;;;;9.40;2.30;;;5.90;99.90;;;;;;5042224;28;20030;-72
2021/10/22 06:29:03;;;;;;;10.05;2.30;;;5.90;99.90;;;;;;5034400;28;20045;-73
2021/10/22 06:31:29;;;;;;;7.28;2.45;;;6.00;99.90;;;;;;5035172;28;20022;-72
2021/10/22 06:33:56;;;;;;;11.93;2.67;;;6.10;99.90;;;;;;5050001;28;20033;-71
2021/10/22 06:36:21;;;;;;;12.30;2.80;;;6.10;99.90;;;;;;5038426;28;20026;-72
2021/10/22 06:38:47;;;;;;;11.05;2.15;;;6.10;99.90;;;;;;5053875;28;20060;-71
2021/10/22 06:41:13;;;;;;;6.97;1.83;;;6.20;99.90;;;;;;5028623;28;20038;-73
2021/10/22 06:43:40;;;;;;;20.42;3.65;;;6.30;99.90;;;;;;5041039;28;20370;-72
2021/10/22 06:46:07;;;;;;;14.93;2.22;;;6.40;99.90;;;;;;5039066;28;20103;-73
2021/10/22 06:48:37;;;;;;;10.05;2.88;;;6.40;99.90;;;;;;5037268;28;20020;-73
2021/10/22 06:51:05;;;;;;;9.90;3.00;;;6.50;99.90;;;;;;5016299;28;20030;-74
2021/10/22 06:53:31;;;;;;;10.50;3.58;;;6.60;99.90;;;;;;5033578;28;20029;-71
2021/10/22 06:55:57;;;;;;;6.80;2.15;;;6.80;99.90;;;;;;5033980;28;20057;-72
2021/10/22 06:58:22;;;;;;;12.48;1.98;;;6.90;99.90;;;;;;5032740;28;20389;-72
2021/10/22 07:00:49;;;;;;;10.30;2.00;;;6.90;99.90;;;;;;5015507;28;20033;-73
2021/10/22 07:03:20;;;;;;;10.52;1.85;;;7.00;99.90;;;;;;5034548;28;20077;-73
2021/10/22 07:08:12;;;;;;;6.60;1.92;;;7.10;99.90;;;;;;5035199;28;19909;-75
2021/10/22 07:10:39;;;;;;;10.25;2.35;;;7.10;99.90;;;;;;5034029;28;20083;-73
2021/10/22 07:13:05;;;;;;;11.18;2.42;;;7.20;99.90;;;;;;5032830;28;20044;-73
2021/10/22 07:15:31;;;;;;;7.38;1.58;;;7.20;99.90;;;;;;5033992;28;20112;-72
2021/10/22 07:18:00;;;;;;;11.77;2.05;;;7.20;99.90;;;;;;5017976;28;20030;-73
2021/10/22 07:20:30;;;;;;;12.90;2.13;;;7.30;99.90;;;;;;5034249;28;20030;-73
2021/10/22 07:23:06;;;;;;;9.50;2.00;;;7.30;99.90;;;;;;5036873;28;20085;-73
2021/10/22 07:25:35;;;;;;;10.20;2.17;;;7.40;99.90;;;;;;5038379;28;20021;-72
2021/10/22 07:28:15;;;;;;;11.60;2.47;;;7.50;99.90;;;;;;5031943;28;20469;-72
2021/10/22 07:30:43;;;;;;;14.07;2.58;;;7.50;99.90;;;;;;5030234;28;20021;-75
2021/10/22 07:33:09;;;;;;;22.42;5.50;;;7.60;99.90;;;;;;5033212;28;20081;-72
2021/10/22 07:35:38;;;;;;;9.45;2.08;;;7.70;99.90;;;;;;5033356;28;20053;-73
2021/10/22 07:38:04;;;;;;;10.95;2.13;;;7.70;99.90;;;;;;5039632;28;20090;-76
2021/10/22 07:40:29;;;;;;;7.18;2.30;;;7.90;99.90;;;;;;5028612;28;20401;-75
2021/10/22 07:42:55;;;;;;;7.53;2.10;;;7.90;99.90;;;;;;5034378;28;20029;-75
2021/10/22 07:45:21;;;;;;;14.43;2.55;;;8.00;99.90;;;;;;5034346;28;20056;-75
2021/10/22 07:47:47;;;;;;;12.00;2.22;;;8.10;99.90;;;;;;5034937;28;20155;-76
2021/10/22 07:50:13;;;;;;;12.80;2.47;;;8.10;99.90;;;;;;5018221;28;20037;-76
2021/10/22 07:52:39;;;;;;;14.18;2.60;;;8.20;99.90;;;;;;5039019;28;20013;-76
2021/10/22 07:55:05;;;;;;;12.68;2.70;;;8.20;99.90;;;;;;5038418;28;20056;-76
2021/10/22 07:57:32;;;;;;;13.18;3.72;;;8.30;99.90;;;;;;5038680;28;20080;-75
2021/10/22 07:59:58;;;;;;;13.73;3.30;;;8.40;99.90;;;;;;5038223;28;20120;-75
2021/10/22 08:02:24;;;;;;;8.20;2.72;;;8.50;99.90;;;;;;5036498;28;20061;-76
2021/10/22 08:04:51;;;;;;;12.70;3.63;;;8.50;99.90;;;;;;5028647;28;20113;-75
2021/10/22 08:07:21;;;;;;;12.57;2.75;;;8.60;99.90;;;;;;5026674;28;20073;-75
2021/10/22 08:09:50;;;;;;;9.15;1.75;;;8.60;99.90;;;;;;5021583;28;20025;-76
2021/10/22 08:12:17;;;;;;;10.60;1.98;;;8.60;99.90;;;;;;5024329;28;20037;-77
2021/10/22 08:14:43;;;;;;;11.57;1.98;;;8.70;99.90;;;;;;5019621;28;20049;-74
2021/10/22 08:17:09;;;;;;;9.77;2.03;;;8.70;99.90;;;;;;5038045;28;20052;-74
2021/10/22 08:19:35;;;;;;;11.63;2.13;;;8.80;99.90;;;;;;5041972;28;20397;-75
2021/10/22 08:24:45;;;;;;;4.47;1.40;;;8.80;99.90;;;;;;5042991;28;20032;-75
2021/10/22 08:27:12;;;;;;;13.32;2.17;;;8.80;99.90;;;;;;5042690;28;20053;-75
2021/10/22 08:29:37;;;;;;;8.05;1.75;;;8.80;99.90;;;;;;5042051;28;20113;-74
2021/10/22 08:32:03;;;;;;;9.25;2.85;;;8.80;99.90;;;;;;5041239;28;20446;-75
2021/10/22 08:34:29;;;;;;;11.20;2.15;;;8.80;99.90;;;;;;5044075;28;20025;-75
2021/10/22 08:36:55;;;;;;;9.60;1.48;;;8.80;99.90;;;;;;5037950;28;20033;-74
2021/10/22 08:39:21;;;;;;;8.88;2.45;;;8.90;99.90;;;;;;5020244;28;20112;-75
2021/10/22 08:41:47;;;;;;;8.88;2.25;;;8.90;99.90;;;;;;5020433;28;20105;-75
2021/10/22 08:44:17;;;;;;;7.70;1.70;;;8.80;99.90;;;;;;5026048;28;20014;-75
2021/10/22 08:46:43;;;;;;;11.95;1.98;;;8.80;99.90;;;;;;5019714;28;20031;-77
2021/10/22 08:49:13;;;;;;;14.23;2.03;;;8.80;99.90;;;;;;5037289;28;20116;-74
2021/10/22 08:51:40;;;;;;;8.48;2.70;;;8.90;99.90;;;;;;5037098;28;20026;-75
2021/10/22 08:54:05;;;;;;;8.02;2.05;;;8.90;99.90;;;;;;5019337;28;20021;-75
2021/10/22 08:56:31;;;;;;;9.98;2.35;;;9.00;99.90;;;;;;5030657;28;20393;-75
2021/10/22 08:58:57;;;;;;;6.60;1.58;;;9.00;99.90;;;;;;5035265;28;20206;-75
2021/10/22 09:01:22;;;;;;;14.02;2.55;;;9.00;99.90;;;;;;5037359;28;20040;-75
2021/10/22 09:03:48;;;;;;;7.38;1.73;;;9.00;99.90;;;;;;5038494;28;20034;-76
2021/10/22 09:06:14;;;;;;;11.60;2.00;;;8.90;99.90;;;;;;5037017;28;20473;-75
2021/10/22 09:08:44;;;;;;;6.43;1.77;;;9.10;99.90;;;;;;5035626;28;20485;-76
2021/10/22 09:11:31;;;;;;;9.27;2.38;;;9.10;99.90;;;;;;5054541;28;20029;-75
2021/10/22 09:14:15;;;;;;;8.15;2.08;;;9.30;99.90;;;;;;5041612;28;20024;-76
2021/10/22 09:16:49;;;;;;;6.13;1.80;;;9.40;99.90;;;;;;5043579;28;20543;-75
2021/10/22 09:19:33;;;;;;;6.88;1.60;;;9.50;99.90;;;;;;5021780;28;20099;-76
2021/10/22 09:22:30;;;;;;;6.88;1.60;;;9.40;99.90;;;;;;5038092;28;20025;-76
2021/10/22 09:24:58;;;;;;;8.65;2.30;;;9.50;99.90;;;;;;5017653;28;20120;-75
2021/10/22 09:27:36;;;;;;;7.82;2.50;;;9.50;99.90;;;;;;5020198;28;20018;-75
2021/10/22 09:30:06;;;;;;;8.55;2.58;;;9.60;99.90;;;;;;5020623;28;20516;-74
2021/10/22 09:32:32;;;;;;;10.75;1.52;;;9.60;99.90;;;;;;5021335;28;20025;-74
2021/10/22 09:34:58;;;;;;;7.13;2.00;;;9.70;99.90;;;;;;5028582;28;20042;-74
2021/10/22 09:37:23;;;;;;;6.95;1.42;;;9.70;99.90;;;;;;5034561;28;20036;-75
2021/10/22 09:39:49;;;;;;;8.27;1.40;;;9.80;99.90;;;;;;5036165;28;20042;-75
2021/10/22 09:42:17;;;;;;;6.00;2.60;;;9.80;99.90;;;;;;5046259;28;20021;-74
2021/10/22 09:44:45;;;;;;;6.78;2.55;;;9.80;99.90;;;;;;5049955;28;20097;-75
2021/10/22 09:47:19;;;;;;;7.28;1.73;;;9.80;99.90;;;;;;5021875;28;20501;-75
2021/10/22 09:49:52;;;;;;;5.53;1.20;;;9.80;99.90;;;;;;5037973;28;20091;-75
2021/10/22 09:52:26;;;;;;;6.47;2.10;;;9.90;99.90;;;;;;5037850;28;20061;-76
2021/10/22 09:55:17;;;;;;;4.35;1.45;;;10.00;99.90;;;;;;5036942;28;20109;-76
2021/10/22 09:57:46;;;;;;;4.97;1.15;;;10.10;99.90;;;;;;5018937;28;20071;-75
2021/10/22 10:00:18;;;;;;;6.43;1.40;;;10.20;99.90;;;;;;5018616;28;20129;-77
2021/10/22 10:02:45;;;;;;;10.27;2.72;;;10.20;99.90;;;;;;5036783;28;20103;-76
2021/10/22 10:05:12;;;;;;;5.35;1.08;;;10.30;99.90;;;;;;5035330;28;20087;-75
2021/10/22 10:07:42;;;;;;;5.03;1.10;;;10.40;99.90;;;;;;5036146;28;20068;-76
2021/10/22 10:10:09;;;;;;;9.10;1.40;;;10.50;99.90;;;;;;5037259;28;20025;-75
2021/10/22 10:12:36;;;;;;;6.53;1.35;;;10.40;99.90;;;;;;5036836;28;20100;-75
2021/10/22 10:15:03;;;;;;;6.45;2.03;;;10.40;99.90;;;;;;5037744;28;20433;-77
2021/10/22 10:17:30;;;;;;;6.15;1.35;;;10.40;99.90;;;;;;5019048;28;20037;-75
2021/10/22 10:19:56;;;;;;;6.57;1.48;;;10.50;99.90;;;;;;5035800;28;20038;-76
2021/10/22 10:22:27;;;;;;;4.60;1.08;;;10.70;99.90;;;;;;5035434;28;20037;-76
2021/10/22 10:24:58;;;;;;;4.60;0.95;;;10.90;99.90;;;;;;5035844;28;20051;-75
2021/10/22 10:27:25;;;;;;;2.85;1.00;;;10.90;99.90;;;;;;5038256;28;20079;-75
2021/10/22 10:29:55;;;;;;;6.57;1.48;;;10.60;99.80;;;;;;5037764;28;20027;-74
2021/10/22 10:32:23;;;;;;;6.32;1.60;;;10.60;99.70;;;;;;5036786;28;20037;-75
2021/10/22 10:34:54;;;;;;;5.78;1.33;;;10.60;99.70;;;;;;5019092;28;20403;-77
2021/10/22 10:37:25;;;;;;;5.18;1.35;;;10.70;99.90;;;;;;5019764;28;20052;-77
2021/10/22 10:40:09;;;;;;;;;;;10.80;99.80;;;;;;5041127;28;20104;-77
2021/10/22 10:42:38;;;;;;;5.13;1.13;;;10.80;99.90;;;;;;5059286;28;19904;-75
2021/10/22 10:45:08;;;;;;;5.90;1.20;;;11.00;99.90;;;;;;5056947;28;20047;-74
2021/10/22 10:47:39;;;;;;;7.15;1.17;;;11.00;99.90;;;;;;5057199;28;20029;-77
2021/10/22 10:50:06;;;;;;;5.57;1.00;;;11.00;99.70;;;;;;5024493;28;20029;-75
2021/10/22 10:52:39;;;;;;;7.50;1.35;;;11.10;99.10;;;;;;5043921;28;20018;-76
2021/10/22 10:55:15;;;;;;;4.70;1.42;;;11.10;99.20;;;;;;5039358;28;20025;-75
2021/10/22 10:57:49;;;;;;;6.57;1.15;;;11.20;98.50;;;;;;5045432;28;20024;-76
2021/10/22 11:00:21;;;;;;;4.97;1.30;;;11.00;97.70;;;;;;5039781;28;20036;-73
2021/10/22 11:03:05;;;;;;;4.43;1.27;;;11.00;98.80;;;;;;5039303;28;20034;-75
2021/10/22 11:05:43;;;;;;;3.72;0.85;;;11.10;99.50;;;;;;5042202;28;20029;-75
2021/10/22 11:08:14;;;;;;;4.85;2.08;;;11.30;98.90;;;;;;5039811;28;20029;-75
2021/10/22 11:11:00;;;;;;;;;;;11.50;99.00;;;;;;5038054;28;20021;-77
2021/10/22 11:14:04;;;;;;;6.75;1.63;;;11.20;96.10;;;;;;5039170;28;20345;-76
2021/10/22 11:16:39;;;;;;;2.78;1.25;;;11.20;95.80;;;;;;5038693;28;20026;-77
2021/10/22 11:19:09;;;;;;;2.80;0.93;;;11.10;94.60;;;;;;5040272;28;20037;-76
2021/10/22 11:21:38;;;;;;;4.88;1.08;;;11.10;93.70;;;;;;5020735;28;20049;-76
2021/10/22 11:24:07;;;;;;;2.45;0.90;;;11.10;91.90;;;;;;5043755;28;20080;-75
2021/10/22 11:26:33;;;;;;;3.15;1.17;;;11.00;91.90;;;;;;5024286;28;20036;-75
2021/10/22 11:29:14;;;;;;;5.18;0.98;;;11.00;90.60;;;;;;5041561;28;20018;-76
2021/10/22 11:31:43;;;;;;;3.78;1.05;;;10.90;90.70;;;;;;5042497;28;20100;-77
2021/10/22 11:34:26;;;;;;;3.47;0.68;;;11.00;90.80;;;;;;5040857;28;20112;-74
2021/10/22 11:37:03;;;;;;;3.88;0.82;;;11.10;90.70;;;;;;5022813;28;20038;-74
2021/10/22 11:39:57;;;;;;;3.45;1.00;;;11.10;90.50;;;;;;5040763;28;20424;-74
2021/10/22 11:42:29;;;;;;;12.38;3.60;;;11.20;90.10;;;;;;5037624;28;20036;-75
2021/10/22 11:45:22;;;;;;;1.92;0.77;;;11.30;90.40;;;;;;5039777;28;20032;-75
2021/10/22 11:47:50;;;;;;;4.28;0.90;;;11.20;89.40;;;;;;5029223;28;20041;-75
2021/10/22 11:50:25;;;;;;;1.92;0.80;;;11.40;90.30;;;;;;5060969;23;20083;-73
2021/10/22 11:53:11;;;;;;;5.70;1.20;;;11.30;89.20;;;;;;5061857;28;20162;-73
2021/10/22 11:55:42;;;;;;;3.28;1.02;;;11.40;89.10;;;;;;5041894;28;20029;-73
2021/10/22 11:58:10;;;;;;;4.40;0.93;;;11.50;88.80;;;;;;5036112;28;20487;-74
2021/10/22 12:00:53;;;;;;;4.22;1.10;;;11.60;89.10;;;;;;5045523;28;20037;-74
2021/10/22 12:03:41;;;;;;;9.95;0.75;;;11.60;89.20;;;;;;5019225;28;20022;-74
2021/10/22 12:06:19;;;;;;;4.68;0.90;;;11.40;88.80;;;;;;5018058;28;20520;-74
2021/10/22 12:08:45;;;;;;;2.85;1.00;;;11.50;90.30;;;;;;5017990;28;20028;-73
2021/10/22 12:11:12;;;;;;;6.05;0.70;;;11.60;90.40;;;;;;5036696;28;20112;-74
2021/10/22 12:13:41;;;;;;;5.65;1.25;;;11.60;90.40;;;;;;5036537;28;20071;-74
2021/10/22 12:16:14;;;;;;;2.67;0.90;;;11.50;90.40;;;;;;5037398;28;20028;-75
2021/10/22 12:18:49;;;;;;;3.45;0.90;;;11.60;90.50;;;;;;5035943;28;20092;-73
2021/10/22 12:21:15;;;;;;;3.85;0.90;;;11.70;90.90;;;;;;5018868;28;20137;-74
2021/10/22 12:23:42;;;;;;;5.13;0.80;;;11.60;90.90;;;;;;5036629;28;20076;-74
2021/10/22 12:26:21;;;;;;;5.70;2.35;;;11.80;91.10;;;;;;5035064;28;20030;-73
2021/10/22 12:29:06;;;;;;;2.28;1.13;;;11.80;90.00;;;;;;5014135;28;20026;-73
2021/10/22 12:31:39;;;;;;;4.47;1.08;;;11.70;89.30;;;;;;5017136;28;20014;-73
2021/10/22 12:34:29;;;;;;;3.20;1.00;;;11.70;88.90;;;;;;5016702;28;20108;-73
2021/10/22 12:37:10;;;;;;;3.33;0.90;;;11.70;90.20;;;;;;5013819;28;20025;-72
2021/10/22 12:39:44;;;;;;;5.38;1.00;;;11.70;88.90;;;;;;5015201;28;20124;-71
2021/10/22 12:42:24;;;;;;;5.60;1.10;;;11.80;90.00;;;;;;5016891;28;20022;-74
2021/10/22 12:45:12;;;;;;;6.32;1.17;;;11.70;90.10;;;;;;5017880;28;20021;-71
2021/10/22 12:47:39;;;;;;;2.47;0.95;;;11.70;90.20;;;;;;5017880;28;20074;-74
2021/10/22 12:50:08;;;;;;;3.28;1.30;;;11.70;90.50;;;;;;5036114;28;20049;-73
2021/10/22 12:52:34;;;;;;;2.45;1.30;;;11.70;90.90;;;;;;5018711;28;20018;-74
2021/10/22 12:55:00;;;;;;;1.67;0.80;;;11.80;90.80;;;;;;5019963;28;20048;-74
2021/10/22 12:57:26;;;;;;;4.30;1.45;;;11.70;90.40;;;;;;5036604;28;20021;-74
2021/10/22 12:59:53;;;;;;;3.85;1.10;;;11.70;90.70;;;;;;5036468;28;20029;-75
2021/10/22 13:02:25;;;;;;;5.05;2.15;;;11.80;90.70;;;;;;5035140;28;20022;-73
2021/10/22 13:05:17;;;;;;;2.22;0.70;;;11.80;91.10;;;;;;5035731;28;20033;-74
2021/10/22 13:08:06;;;;;;;5.32;1.30;;;11.70;91.10;;;;;;5017274;28;20029;-73